Jind HR Speed Test Log

Averages  Max Speed    
1 to 25 of 346** for City Jind HR
Time
Speed Provider Size    User ConnectID  TestID   
7/1/21 4:14:33 pm 10.56 Mbps 1.32 MB/sDstech 6.1 MB95296996752 IpBijw3QR 
7/1/21 4:14:19 pm 4.62 Mbps 578 kB/sDstech 24.8 MB95296996752 RGKxKk~IF 
7/1/21 4:10:22 pm 27.14 Mbps 3.39 MB/sDstech 18.6 MB95296995927 9Egb0BSdm 
7/1/21 4:10:02 pm 8.34 Mbps 1.04 MB/sDstech 22.4 MB95296995927 GvTUkyvRi 
6/29/21 4:27:17 pm 37.72 Mbps 4.71 MB/sBsnl 37.4 MB10749131734519 iqn2Kix-r 
6/29/21 4:27:04 pm 66.87 Mbps 8.36 MB/sBsnl 82.7 MB10749131734519 x-KSNstKe 
6/29/21 3:52:37 pm 19.82 Mbps 2.48 MB/sBsnl 19.4 MB10749131734519 ASVFXE9tc 
6/29/21 3:52:22 pm 67.64 Mbps 8.46 MB/sBsnl 81.7 MB10749131734519 4oXpnQFCk 
6/9/21 11:14:43 am 445 kbps 56 kB/sBsnl 584 kB10747026380262 XF0kyE4kh 
6/9/21 11:14:25 am 1.32 Mbps 166 kB/sBsnl 2.6 MB10747026380262 gwyy51gey 
6/6/21 6:00:19 pm 4.27 Mbps 534 kB/sVodafone 2 MB56060549625977 QEDsjkswh 
5/26/21 3:37:37 pm 21.5 Mbps 2.69 MB/sBsnl 58.1 MB107491317596 sbT1VEET9 
5/22/21 7:05:14 am 5.55 Mbps 694 kB/sDstech 4.8 MB95296995927 I9Nlpj_Cg 
5/22/21 7:04:56 am 8.84 Mbps 1.1 MB/sDstech 14.3 MB95296995927 qNbMfcDaJ 
5/22/21 7:02:29 am 2.65 Mbps 332 kB/sDstech 1.1 MB95296996752 wUwm-8Nhs 
5/22/21 7:02:19 am 5.53 Mbps 691 kB/sDstech 7.7 MB95296996752 ghWqrZ0Q5 
5/22/21 7:01:23 am 9.6 Mbps 1.2 MB/sDstech 5.6 MB95296996752 SweYOEUp_ 
5/22/21 7:01:08 am 5.4 Mbps 675 kB/sDstech 2.5 MB95296996752 p7Ec4YS4~ 
4/30/21 4:51:09 am 1.64 Mbps 205 kB/sVodafone 3 MB41510442600194 ~_MGU50Pi 
4/30/21 4:50:40 am 1.8 Mbps 225 kB/sVodafone 3 MB41510442600194 x9KfXS9kM 
4/7/21 8:26:21 am 1.73 Mbps 216 kB/sBsnl 1.3 MB107499861776 kXKrhDWqB 
4/7/21 8:25:20 am 93 kbps 12 kB/sBsnl 480 kB107499861776 _423PbsbV 
4/7/21 8:24:13 am 1.66 Mbps 207 kB/sBsnl 1.3 MB107499861776 -Ji6rCyAf 
4/7/21 8:24:02 am 2.12 Mbps 265 kB/sBsnl 15 MB107499861776 HSgz-8Jez 
3/24/21 6:16:47 pm 1.34 Mbps 168 kB/sVodafone 2.2 MB62865566957705 P_AISbpPc 
  
** Partial Results: The most recent results have been displayed. Results over 50 Mbps are highlighted.
Graphed results calculation
Displaying Internet Speed Test results for City Jind HR

Minimum

Min 0.09 Mbps : 0.45 Mbps

Average [show Median]

Average 15.02 Mbps : 10.25 Mbps

Maximum

Max 67.64 Mbps : 37.72 Mbps

Minimum

Minimum: 0.09 Mbps : 0.45 Mbps

Average

Average: 15.02 Mbps : 10.25 Mbps [show Median]

Maximum

Maximum: 67.64 Mbps : 37.72 Mbps